Time;durP1;ratioP1;P1;durP2;ratioP2;P2;SDS_P1;SDS_P2;PMS_P1;PMS_P2;Temp;Humidity;BMP_temperature;BMP_pressure;BME280_temperature;BME280_humidity;BME280_pressure;Samples;Min_cycle;Max_cycle;Signal;HPM_P1;HPM_P2
2024/02/05 00:02:01;;;;;;;106.57;77.00;;;9.10;99.90;;;;;;6246011;23;20000;-75
2024/02/05 00:04:27;;;;;;;111.97;79.87;;;9.10;99.90;;;;;;6245810;23;20000;-75
2024/02/05 00:06:53;;;;;;;112.40;80.93;;;9.10;99.90;;;;;;6245825;23;20016;-74
2024/02/05 00:09:22;;;;;;;111.03;79.87;;;9.10;99.90;;;;;;6245948;23;20330;-74
2024/02/05 00:11:47;;;;;;;110.90;78.37;;;9.10;99.90;;;;;;6245396;23;20040;-73
2024/02/05 00:14:13;;;;;;;104.63;77.33;;;9.10;99.90;;;;;;6245753;23;20050;-74
2024/02/05 00:16:39;;;;;;;105.00;75.90;;;9.10;99.90;;;;;;6245313;23;20065;-74
2024/02/05 00:19:04;;;;;;;109.00;77.23;;;9.10;99.90;;;;;;6245334;23;20365;-74
2024/02/05 00:21:30;;;;;;;106.93;75.03;;;9.10;99.90;;;;;;6245309;23;20001;-74
2024/02/05 00:23:56;;;;;;;105.17;75.53;;;9.10;99.90;;;;;;6245657;23;20327;-74
2024/02/05 00:26:23;;;;;;;104.87;74.77;;;9.00;99.90;;;;;;6245366;23;20000;-75
2024/02/05 00:28:49;;;;;;;110.60;76.57;;;9.00;99.90;;;;;;6245865;23;20012;-74
2024/02/05 00:31:15;;;;;;;105.30;76.60;;;9.00;99.90;;;;;;6244033;23;20052;-74
2024/02/05 00:33:40;;;;;;;106.20;76.63;;;9.00;99.90;;;;;;6245872;23;20000;-74
2024/02/05 00:36:07;;;;;;;109.33;78.63;;;9.00;99.90;;;;;;6245491;23;20027;-74
2024/02/05 00:38:33;;;;;;;104.80;76.23;;;9.00;99.90;;;;;;6245765;23;20532;-73
2024/02/05 00:40:59;;;;;;;106.43;76.87;;;9.00;99.90;;;;;;6245719;23;20004;-74
2024/02/05 00:43:24;;;;;;;101.17;73.07;;;9.00;99.90;;;;;;6245077;23;20073;-74
2024/02/05 00:45:50;;;;;;;107.13;73.47;;;9.00;99.90;;;;;;6244841;23;20000;-74
2024/02/05 00:48:16;;;;;;;105.70;75.30;;;9.00;99.90;;;;;;6245342;23;20016;-75
2024/02/05 00:50:41;;;;;;;103.70;75.70;;;9.00;99.90;;;;;;6245349;23;20007;-74
2024/02/05 00:53:07;;;;;;;104.90;73.90;;;8.90;99.90;;;;;;6245401;23;20003;-75
2024/02/05 00:55:33;;;;;;;105.13;74.00;;;8.90;99.90;;;;;;6244906;23;20000;-74
2024/02/05 00:57:59;;;;;;;101.93;74.73;;;8.90;99.90;;;;;;6243146;23;20110;-74
2024/02/05 01:00:24;;;;;;;106.13;75.53;;;8.80;99.90;;;;;;6244604;23;19996;-74
2024/02/05 01:02:53;;;;;;;100.60;72.93;;;8.80;99.90;;;;;;6217919;23;20008;-73
2024/02/05 01:05:19;;;;;;;103.73;74.33;;;8.80;99.90;;;;;;6244604;23;20008;-73
2024/02/05 01:07:45;;;;;;;102.53;74.90;;;8.90;99.90;;;;;;6245003;23;20004;-74
2024/02/05 01:10:11;;;;;;;105.43;74.50;;;8.80;99.90;;;;;;6245521;23;20050;-74
2024/02/05 01:12:37;;;;;;;110.23;77.63;;;8.80;99.90;;;;;;6245380;23;20004;-73
2024/02/05 01:15:04;;;;;;;104.87;75.13;;;8.80;99.90;;;;;;6245450;23;20000;-74
2024/02/05 01:17:31;;;;;;;106.73;77.10;;;8.80;99.90;;;;;;6245291;23;20312;-74
2024/02/05 01:19:57;;;;;;;108.67;76.97;;;8.80;99.90;;;;;;6245028;23;20004;-74
2024/02/05 01:22:23;;;;;;;105.83;74.30;;;8.70;99.90;;;;;;6245315;23;20031;-74
2024/02/05 01:24:49;;;;;;;106.63;76.10;;;8.80;99.90;;;;;;6245552;23;20046;-74
2024/02/05 01:27:15;;;;;;;106.33;76.00;;;8.70;99.90;;;;;;6244946;23;20418;-74
2024/02/05 01:29:44;;;;;;;105.40;73.97;;;8.70;99.90;;;;;;6244836;23;20119;-72
2024/02/05 01:32:11;;;;;;;106.50;74.53;;;8.80;99.90;;;;;;6245194;23;20001;-74
2024/02/05 01:34:37;;;;;;;104.10;72.63;;;8.80;99.90;;;;;;6245459;23;20062;-74
2024/02/05 01:37:03;;;;;;;107.17;72.47;;;8.70;99.90;;;;;;6245740;23;20134;-74
2024/02/05 01:39:29;;;;;;;111.80;77.43;;;8.70;99.90;;;;;;6245055;23;20042;-74
2024/02/05 01:41:55;;;;;;;106.30;74.87;;;8.70;99.90;;;;;;6244874;23;20488;-73
2024/02/05 01:44:21;;;;;;;108.73;74.73;;;8.70;99.90;;;;;;6218423;23;20092;-74
2024/02/05 01:46:47;;;;;;;104.17;73.80;;;8.70;99.90;;;;;;6245121;23;20058;-74
2024/02/05 01:49:13;;;;;;;105.07;75.27;;;8.60;99.90;;;;;;6244949;23;20009;-74
2024/02/05 01:51:45;;;;;;;100.60;72.20;;;8.70;99.90;;;;;;6218044;23;20011;-74
2024/02/05 01:54:14;;;;;;;104.40;72.80;;;8.70;99.90;;;;;;6247052;23;20023;-74
2024/02/05 01:56:40;;;;;;;101.37;72.53;;;8.60;99.90;;;;;;6247265;23;20075;-74
2024/02/05 01:59:07;;;;;;;99.43;71.20;;;8.70;99.90;;;;;;6243903;23;20438;-73
2024/02/05 02:01:37;;;;;;;100.10;72.97;;;8.60;99.90;;;;;;6243457;23;20046;-74
2024/02/05 02:04:05;;;;;;;98.47;71.03;;;8.70;99.90;;;;;;6244100;23;20342;-74
2024/02/05 02:06:34;;;;;;;101.17;70.67;;;8.70;99.90;;;;;;6245242;23;20039;-74
2024/02/05 02:09:01;;;;;;;96.47;67.00;;;8.70;99.90;;;;;;6246809;23;20083;-72
2024/02/05 02:11:27;;;;;;;91.83;66.93;;;8.70;99.90;;;;;;6246965;23;20008;-74
2024/02/05 02:13:53;;;;;;;97.77;70.20;;;8.70;99.90;;;;;;6246690;23;20001;-74
2024/02/05 02:16:26;;;;;;;97.27;69.33;;;8.70;99.90;;;;;;6246918;23;20000;-73
2024/02/05 02:18:55;;;;;;;99.97;72.17;;;8.70;99.90;;;;;;6246944;23;20003;-74
2024/02/05 02:21:20;;;;;;;97.67;69.90;;;8.70;99.90;;;;;;6246528;23;20019;-74
2024/02/05 02:23:47;;;;;;;94.17;68.23;;;8.70;99.90;;;;;;6246990;23;20000;-74
2024/02/05 02:26:13;;;;;;;96.17;69.80;;;8.70;99.90;;;;;;6246837;23;20072;-74
2024/02/05 02:28:39;;;;;;;100.03;71.20;;;8.70;99.90;;;;;;6219322;23;20015;-74
2024/02/05 02:31:06;;;;;;;100.40;71.27;;;8.60;99.90;;;;;;6247041;23;20020;-74
2024/02/05 02:33:53;;;;;;;95.53;67.73;;;8.60;99.90;;;;;;6246884;23;20036;-73
2024/02/05 02:36:26;;;;;;;98.27;70.97;;;8.60;99.90;;;;;;6246877;23;20000;-74
2024/02/05 02:38:57;;;;;;;;;;;8.60;99.90;;;;;;6247385;23;20027;-74
2024/02/05 02:41:27;;;;;;;100.27;68.40;;;8.60;99.90;;;;;;6249257;23;19900;-71
2024/02/05 02:44:00;;;;;;;96.20;70.37;;;8.60;99.90;;;;;;6246986;23;20035;-73
2024/02/05 02:46:29;;;;;;;94.93;68.93;;;8.60;99.90;;;;;;6246867;23;20001;-73
2024/02/05 02:48:56;;;;;;;96.33;68.30;;;8.60;99.90;;;;;;6246437;23;20011;-73
2024/02/05 02:51:22;;;;;;;93.87;66.60;;;8.60;99.90;;;;;;6246337;23;20004;-72
2024/02/05 02:53:48;;;;;;;101.33;70.20;;;8.60;99.90;;;;;;6246648;23;20434;-73
2024/02/05 02:56:14;;;;;;;94.20;68.07;;;8.60;99.90;;;;;;6246732;23;20115;-72
2024/02/05 02:58:40;;;;;;;91.70;67.87;;;8.60;99.90;;;;;;6246691;23;20019;-72
2024/02/05 03:01:06;;;;;;;98.70;67.67;;;8.60;99.90;;;;;;6246936;23;20004;-72
2024/02/05 03:03:32;;;;;;;98.50;70.13;;;8.60;99.90;;;;;;6246520;23;20004;-72
2024/02/05 03:05:58;;;;;;;97.73;70.80;;;8.60;99.90;;;;;;6246686;23;20031;-71
2024/02/05 03:08:24;;;;;;;94.80;67.30;;;8.60;99.90;;;;;;6246471;23;20043;-73
2024/02/05 03:10:50;;;;;;;98.53;69.77;;;8.60;99.90;;;;;;6246376;23;20007;-73
2024/02/05 03:13:16;;;;;;;97.53;67.13;;;8.60;99.90;;;;;;6246098;23;20335;-72
2024/02/05 03:15:42;;;;;;;100.10;66.90;;;8.60;99.90;;;;;;6246467;23;20410;-72
2024/02/05 03:18:09;;;;;;;94.63;68.40;;;8.60;99.90;;;;;;6246749;23;20429;-72
2024/02/05 03:20:39;;;;;;;95.07;69.40;;;8.60;99.90;;;;;;6246499;23;20004;-72
2024/02/05 03:23:06;;;;;;;89.73;65.57;;;8.60;99.90;;;;;;6246474;23;20034;-73
2024/02/05 03:25:33;;;;;;;97.13;70.00;;;8.60;99.90;;;;;;6246283;23;20000;-73
2024/02/05 03:28:02;;;;;;;97.10;70.87;;;8.60;99.90;;;;;;6246245;23;20012;-73
2024/02/05 03:30:34;;;;;;;99.93;69.23;;;8.60;99.90;;;;;;6246159;23;20016;-73
2024/02/05 03:33:01;;;;;;;99.57;70.53;;;8.60;99.90;;;;;;6246266;23;20007;-73
2024/02/05 03:35:28;;;;;;;94.27;68.40;;;8.60;99.90;;;;;;6246564;23;20000;-72
2024/02/05 03:37:54;;;;;;;94.50;67.10;;;8.60;99.90;;;;;;6246294;23;19997;-72
2024/02/05 03:40:21;;;;;;;100.87;69.73;;;8.60;99.90;;;;;;6246561;23;20004;-72
2024/02/05 03:42:50;;;;;;;96.80;68.63;;;8.60;99.90;;;;;;6246380;23;20000;-72
2024/02/05 03:45:16;;;;;;;95.43;67.07;;;8.60;99.90;;;;;;6246066;23;20007;-72
2024/02/05 03:47:43;;;;;;;96.23;67.17;;;8.60;99.90;;;;;;6245867;23;20020;-72
2024/02/05 03:50:12;;;;;;;94.20;65.20;;;8.60;99.90;;;;;;6246445;23;20035;-72
2024/02/05 03:52:48;;;;;;;90.23;65.07;;;8.60;99.90;;;;;;6246313;23;20431;-73
2024/02/05 03:55:15;;;;;;;90.87;64.23;;;8.60;99.90;;;;;;6219075;23;20015;-73
2024/02/05 03:57:55;;;;;;;92.93;68.90;;;8.60;99.90;;;;;;6245621;23;20426;-73
2024/02/05 04:00:21;;;;;;;97.60;70.47;;;8.50;99.90;;;;;;6219171;23;20602;-72
2024/02/05 04:02:47;;;;;;;89.37;65.70;;;8.60;99.90;;;;;;6246066;23;20079;-72
2024/02/05 04:05:12;;;;;;;96.47;68.43;;;8.60;99.90;;;;;;6245927;23;20003;-72
2024/02/05 04:07:38;;;;;;;98.57;70.93;;;8.50;99.90;;;;;;6219201;23;20019;-72
2024/02/05 04:10:05;;;;;;;98.90;70.03;;;8.60;99.90;;;;;;6245323;23;20012;-72
2024/02/05 04:12:30;;;;;;;101.27;71.67;;;8.60;99.90;;;;;;6245689;23;20082;-72
2024/02/05 04:14:56;;;;;;;100.37;67.87;;;8.50;99.90;;;;;;6246368;23;20012;-73
2024/02/05 04:17:23;;;;;;;98.17;68.47;;;8.50;99.90;;;;;;6218672;23;20070;-72
2024/02/05 04:19:49;;;;;;;98.37;70.67;;;8.50;99.90;;;;;;6245928;23;20003;-72
2024/02/05 04:22:15;;;;;;;103.27;70.53;;;8.50;99.90;;;;;;6245838;23;20075;-72
2024/02/05 04:24:40;;;;;;;94.93;68.73;;;8.40;99.90;;;;;;6245882;23;20000;-72
2024/02/05 04:27:06;;;;;;;97.43;70.77;;;8.50;99.90;;;;;;6246090;23;20031;-72
2024/02/05 04:29:33;;;;;;;98.43;71.50;;;8.50;99.90;;;;;;6245357;23;20038;-72
2024/02/05 04:32:00;;;;;;;117.40;76.77;;;8.50;99.90;;;;;;6245445;23;20318;-72
2024/02/05 04:34:26;;;;;;;105.50;72.70;;;8.50;99.90;;;;;;6245625;23;20067;-73
2024/02/05 04:36:54;;;;;;;107.03;73.67;;;8.50;99.90;;;;;;6245997;23;20031;-72
2024/02/05 04:39:21;;;;;;;100.23;70.00;;;8.40;99.90;;;;;;6245487;23;20431;-71
2024/02/05 04:41:48;;;;;;;96.43;70.60;;;8.40;99.90;;;;;;6245227;23;20061;-72
2024/02/05 04:44:14;;;;;;;103.93;72.17;;;8.40;99.90;;;;;;6245410;23;20007;-72
2024/02/05 04:46:40;;;;;;;102.87;72.40;;;8.40;99.90;;;;;;6245700;23;20004;-72
2024/02/05 04:49:06;;;;;;;105.57;73.30;;;8.40;99.90;;;;;;6246009;23;20032;-72
2024/02/05 04:51:32;;;;;;;111.43;75.17;;;8.40;99.90;;;;;;6245486;23;20061;-71
2024/02/05 04:53:58;;;;;;;102.30;70.63;;;8.30;99.90;;;;;;6245502;23;20308;-72
2024/02/05 04:56:24;;;;;;;102.33;72.93;;;8.30;99.90;;;;;;6245391;23;20022;-72
2024/02/05 04:58:51;;;;;;;102.57;74.17;;;8.30;99.90;;;;;;6218654;23;20004;-72
2024/02/05 05:01:17;;;;;;;103.37;73.53;;;8.30;99.90;;;;;;6245535;23;20008;-73
2024/02/05 05:03:43;;;;;;;103.90;72.57;;;8.30;99.90;;;;;;6245461;23;20012;-72
2024/02/05 05:06:09;;;;;;;100.37;72.20;;;8.30;99.90;;;;;;6243880;23;20012;-72
2024/02/05 05:08:34;;;;;;;102.40;71.67;;;8.30;99.90;;;;;;6245284;23;20008;-71
2024/02/05 05:11:00;;;;;;;100.77;72.17;;;8.30;99.90;;;;;;6245114;23;20075;-72
2024/02/05 05:13:26;;;;;;;100.53;71.67;;;8.30;99.90;;;;;;6244869;23;20026;-71
2024/02/05 05:15:54;;;;;;;100.33;69.73;;;8.30;99.90;;;;;;6245114;23;19996;-72
2024/02/05 05:18:20;;;;;;;99.93;70.07;;;8.30;99.90;;;;;;6245056;23;20007;-72
2024/02/05 05:20:46;;;;;;;98.93;70.40;;;8.30;99.90;;;;;;6245331;23;20000;-72
2024/02/05 05:23:11;;;;;;;101.20;69.73;;;8.20;99.90;;;;;;6244829;23;20004;-72
2024/02/05 05:25:37;;;;;;;101.17;72.07;;;8.20;99.90;;;;;;6218583;23;20058;-72
2024/02/05 05:28:06;;;;;;;99.17;71.27;;;8.20;99.90;;;;;;6245783;23;20099;-72
2024/02/05 05:30:32;;;;;;;103.70;72.33;;;8.20;99.90;;;;;;6244471;23;20121;-71
2024/02/05 05:32:58;;;;;;;101.57;72.33;;;8.20;99.90;;;;;;6244834;23;20027;-72
2024/02/05 05:35:24;;;;;;;103.63;73.07;;;8.20;99.90;;;;;;6245269;23;20049;-72
2024/02/05 05:37:49;;;;;;;97.97;70.73;;;8.20;99.90;;;;;;6245001;23;20031;-72
2024/02/05 05:40:15;;;;;;;98.93;70.63;;;8.20;99.90;;;;;;6244681;23;20001;-72
2024/02/05 05:42:41;;;;;;;104.57;72.27;;;8.20;99.90;;;;;;6244590;23;20000;-71
2024/02/05 05:45:08;;;;;;;101.47;73.07;;;8.20;99.90;;;;;;6245174;23;20004;-71
2024/02/05 05:47:34;;;;;;;104.83;72.43;;;8.20;99.90;;;;;;6244911;23;20427;-72
2024/02/05 05:49:59;;;;;;;106.03;74.93;;;8.20;99.90;;;;;;6244910;23;20075;-72
2024/02/05 05:52:27;;;;;;;105.70;72.50;;;8.20;99.90;;;;;;6244994;23;20074;-71
2024/02/05 05:54:53;;;;;;;101.03;72.97;;;8.20;99.90;;;;;;6244972;23;20081;-71
2024/02/05 05:57:19;;;;;;;100.57;71.73;;;8.20;99.90;;;;;;6245183;23;19996;-71
2024/02/05 05:59:45;;;;;;;98.40;70.60;;;8.20;99.90;;;;;;6245031;23;20011;-72
2024/02/05 06:02:10;;;;;;;102.23;72.67;;;8.30;99.90;;;;;;6244418;23;20000;-72
2024/02/05 06:04:36;;;;;;;102.30;69.10;;;8.20;99.90;;;;;;6244894;23;20031;-71
2024/02/05 06:07:06;;;;;;;107.03;72.87;;;8.20;99.90;;;;;;6244823;23;20331;-72
2024/02/05 06:09:32;;;;;;;103.47;71.10;;;8.20;99.90;;;;;;6244785;23;20015;-73
2024/02/05 06:11:58;;;;;;;98.73;73.30;;;8.20;99.90;;;;;;6245106;23;20000;-71
2024/02/05 06:14:23;;;;;;;102.67;74.07;;;8.30;99.90;;;;;;6245027;23;20015;-71
2024/02/05 06:16:49;;;;;;;94.70;70.97;;;8.30;99.90;;;;;;6217688;23;20338;-71
2024/02/05 06:19:15;;;;;;;96.63;68.60;;;8.20;99.90;;;;;;6245341;23;20001;-72
2024/02/05 06:21:41;;;;;;;104.70;72.53;;;8.20;99.90;;;;;;6242759;23;20007;-72
2024/02/05 06:24:06;;;;;;;104.50;73.53;;;8.20;99.90;;;;;;6245004;23;19996;-74
2024/02/05 06:26:32;;;;;;;104.97;74.20;;;8.20;99.90;;;;;;6244993;23;20330;-72
2024/02/05 06:28:58;;;;;;;105.97;73.47;;;8.20;99.90;;;;;;6245072;23;20062;-73
2024/02/05 06:31:24;;;;;;;104.43;73.30;;;8.20;99.90;;;;;;6245123;23;20011;-73
2024/02/05 06:33:49;;;;;;;103.17;73.50;;;8.20;99.90;;;;;;6218620;23;20394;-73
2024/02/05 06:36:15;;;;;;;106.43;69.03;;;8.20;99.90;;;;;;6221050;23;20007;-76
2024/02/05 06:38:41;;;;;;;110.67;71.60;;;8.20;99.90;;;;;;6258294;23;20011;-73
2024/02/05 06:41:07;;;;;;;99.13;67.07;;;8.20;99.90;;;;;;6264333;23;20052;-73
2024/02/05 06:43:35;;;;;;;98.67;67.50;;;8.20;99.90;;;;;;6266511;23;20004;-73
2024/02/05 06:46:02;;;;;;;95.87;65.33;;;8.20;99.90;;;;;;6255828;23;20008;-74
2024/02/05 06:48:31;;;;;;;92.17;65.37;;;8.20;99.90;;;;;;6256030;23;20016;-73
2024/02/05 06:50:57;;;;;;;92.70;62.27;;;8.30;99.90;;;;;;6269844;23;20000;-73
2024/02/05 06:53:23;;;;;;;89.00;61.20;;;8.30;99.90;;;;;;6273996;22;20004;-74
2024/02/05 06:55:49;;;;;;;90.47;60.73;;;8.30;99.90;;;;;;6245720;23;20030;-72
2024/02/05 06:58:14;;;;;;;90.37;59.90;;;8.30;99.90;;;;;;6262254;23;19996;-73
2024/02/05 07:00:41;;;;;;;88.03;57.47;;;8.30;99.90;;;;;;6246671;23;20038;-73
2024/02/05 07:03:06;;;;;;;85.37;58.17;;;8.30;99.90;;;;;;6245965;23;20024;-73
2024/02/05 07:05:32;;;;;;;94.17;61.17;;;8.40;99.90;;;;;;6245909;23;20007;-72
2024/02/05 07:07:58;;;;;;;102.53;68.43;;;8.40;99.90;;;;;;6245800;23;20016;-73
2024/02/05 07:10:24;;;;;;;97.77;67.00;;;8.40;99.90;;;;;;6246813;23;20026;-73
2024/02/05 07:12:50;;;;;;;96.33;67.77;;;8.40;99.90;;;;;;6246807;23;20012;-73
2024/02/05 07:15:16;;;;;;;106.90;68.60;;;8.40;99.90;;;;;;6246254;23;20004;-73
2024/02/05 07:17:43;;;;;;;106.63;68.43;;;8.40;99.90;;;;;;6245668;23;20046;-73
2024/02/05 07:20:09;;;;;;;100.83;68.93;;;8.40;99.90;;;;;;6246671;23;20000;-73
2024/02/05 07:22:36;;;;;;;105.67;68.23;;;8.40;99.90;;;;;;6246819;23;20367;-73
2024/02/05 07:25:01;;;;;;;102.37;67.60;;;8.40;99.90;;;;;;6246612;23;20446;-73
2024/02/05 07:27:28;;;;;;;106.60;67.10;;;8.40;99.90;;;;;;6246548;23;20015;-73
2024/02/05 07:29:54;;;;;;;97.60;67.13;;;8.40;99.90;;;;;;6218430;23;20036;-73
2024/02/05 07:32:20;;;;;;;109.37;70.10;;;8.40;99.90;;;;;;6245647;23;20008;-74
2024/02/05 07:34:47;;;;;;;104.53;69.37;;;8.40;99.90;;;;;;6246332;23;19996;-73
2024/02/05 07:37:13;;;;;;;112.00;73.27;;;8.40;99.90;;;;;;6246066;23;20004;-73
2024/02/05 07:39:39;;;;;;;110.33;75.03;;;8.40;99.90;;;;;;6246481;23;20007;-73
2024/02/05 07:42:05;;;;;;;116.63;72.93;;;8.40;99.90;;;;;;6246421;23;20035;-73
2024/02/05 07:44:32;;;;;;;125.33;78.93;;;8.40;99.90;;;;;;6246882;23;20058;-73
2024/02/05 07:46:57;;;;;;;129.17;78.50;;;8.40;99.90;;;;;;6246380;23;20004;-73
2024/02/05 07:49:25;;;;;;;126.13;80.87;;;8.40;99.90;;;;;;6246225;23;20015;-73
2024/02/05 07:51:52;;;;;;;130.07;81.03;;;8.40;99.90;;;;;;6218592;23;20643;-73
2024/02/05 07:54:19;;;;;;;132.93;79.50;;;8.30;99.90;;;;;;6246196;23;20015;-73
2024/02/05 07:56:45;;;;;;;113.73;75.40;;;8.40;99.90;;;;;;6246507;23;19996;-73
2024/02/05 07:59:11;;;;;;;133.50;76.83;;;8.40;99.90;;;;;;6246723;23;20015;-72
2024/02/05 08:01:37;;;;;;;124.70;76.77;;;8.50;99.90;;;;;;6246003;23;20027;-71
2024/02/05 08:04:03;;;;;;;113.00;75.00;;;8.50;99.90;;;;;;6246171;23;20071;-70
2024/02/05 08:06:30;;;;;;;123.50;75.67;;;8.50;99.90;;;;;;6246136;23;20000;-70
2024/02/05 08:09:04;;;;;;;108.63;71.80;;;8.50;99.90;;;;;;6219201;23;20421;-73
2024/02/05 08:11:30;;;;;;;110.60;71.90;;;8.50;99.90;;;;;;6246057;23;20004;-71
2024/02/05 08:13:56;;;;;;;121.50;74.37;;;8.50;99.90;;;;;;6245595;23;20300;-70
2024/02/05 08:16:21;;;;;;;123.30;74.27;;;8.50;99.90;;;;;;6246423;23;20050;-73
2024/02/05 08:18:47;;;;;;;107.13;68.57;;;8.60;99.90;;;;;;6245727;23;20391;-73
2024/02/05 08:21:13;;;;;;;106.90;69.17;;;8.60;99.90;;;;;;6246393;23;20355;-73
2024/02/05 08:23:39;;;;;;;103.27;69.07;;;8.60;99.90;;;;;;6246233;23;20008;-74
2024/02/05 08:26:05;;;;;;;105.27;68.87;;;8.60;99.90;;;;;;6218577;23;20000;-73
2024/02/05 08:28:36;;;;;;;104.77;66.27;;;8.60;99.90;;;;;;6245780;23;20051;-74
2024/02/05 08:31:03;;;;;;;100.13;64.43;;;8.60;99.90;;;;;;6243774;23;20024;-74
2024/02/05 08:33:30;;;;;;;96.77;65.80;;;8.70;99.90;;;;;;6244475;23;20008;-73
2024/02/05 08:35:56;;;;;;;89.53;61.33;;;8.70;99.90;;;;;;6244645;23;20035;-73
2024/02/05 08:38:22;;;;;;;101.53;63.50;;;8.80;99.90;;;;;;6244765;23;20004;-73
2024/02/05 08:40:47;;;;;;;106.20;66.30;;;8.80;99.90;;;;;;6244630;23;20019;-73
2024/02/05 08:43:13;;;;;;;101.90;68.33;;;8.90;99.90;;;;;;6250055;23;20004;-73
2024/02/05 08:45:39;;;;;;;100.30;64.77;;;8.90;99.90;;;;;;6248157;23;20048;-73
2024/02/05 08:48:06;;;;;;;102.23;67.97;;;8.90;99.90;;;;;;6246214;23;20091;-73
2024/02/05 08:50:35;;;;;;;105.17;71.00;;;8.90;99.90;;;;;;6245606;23;20031;-71
2024/02/05 08:53:04;;;;;;;102.50;70.33;;;9.00;99.90;;;;;;6245391;23;20004;-73
2024/02/05 08:55:29;;;;;;;100.13;68.03;;;9.00;99.90;;;;;;6246525;23;19996;-73
2024/02/05 08:57:55;;;;;;;114.83;70.97;;;9.10;99.90;;;;;;6247419;23;20099;-73
2024/02/05 09:00:22;;;;;;;96.80;67.07;;;9.10;99.90;;;;;;6246491;23;19997;-72
2024/02/05 09:02:54;;;;;;;96.73;63.53;;;9.10;99.90;;;;;;6246864;23;20004;-73
2024/02/05 09:05:20;;;;;;;;;;;9.20;99.90;;;;;;6248964;23;20071;-73
2024/02/05 09:07:46;;;;;;;113.47;73.13;;;9.20;99.90;;;;;;6244397;23;19942;-73
2024/02/05 09:10:12;;;;;;;120.60;74.17;;;9.20;99.90;;;;;;6244044;23;19996;-73
2024/02/05 09:12:38;;;;;;;105.97;70.87;;;9.20;99.90;;;;;;6244225;23;20004;-74
2024/02/05 09:15:04;;;;;;;98.27;68.60;;;9.30;99.90;;;;;;6244255;23;19996;-74
2024/02/05 09:17:33;;;;;;;102.53;70.73;;;9.30;99.90;;;;;;6243672;23;20000;-73
2024/02/05 09:19:59;;;;;;;94.87;68.30;;;9.30;99.90;;;;;;6243988;23;20003;-73
2024/02/05 09:22:24;;;;;;;93.70;67.33;;;9.30;99.90;;;;;;6243871;23;19997;-73
2024/02/05 09:24:50;;;;;;;95.97;67.03;;;9.30;99.90;;;;;;6243949;23;20058;-73
2024/02/05 09:27:16;;;;;;;94.23;64.07;;;9.40;99.90;;;;;;6244168;23;20014;-73
2024/02/05 09:29:42;;;;;;;105.53;67.17;;;9.40;99.90;;;;;;6191727;23;1226108;-73
2024/02/05 09:32:08;;;;;;;88.50;61.90;;;9.40;99.90;;;;;;6245324;23;20079;-73
2024/02/05 09:34:35;;;;;;;95.20;63.17;;;9.50;99.90;;;;;;6245258;23;20324;-73
2024/02/05 09:37:02;;;;;;;93.43;61.57;;;9.50;99.90;;;;;;6245560;23;20028;-74
2024/02/05 09:39:28;;;;;;;92.97;62.07;;;9.50;99.90;;;;;;6245595;23;20300;-73
2024/02/05 09:42:01;;;;;;;84.63;58.40;;;9.50;99.90;;;;;;6245213;23;20026;-74
2024/02/05 09:44:35;;;;;;;88.72;59.70;;;9.50;99.90;;;;;;6245670;23;20004;-73
2024/02/05 09:47:01;;;;;;;96.17;64.53;;;9.60;99.90;;;;;;6245336;23;20004;-74
2024/02/05 09:49:27;;;;;;;111.97;71.47;;;9.60;99.90;;;;;;6245538;23;20007;-73
2024/02/05 09:51:53;;;;;;;121.37;76.23;;;9.60;99.90;;;;;;6245230;23;20001;-71
2024/02/05 09:54:19;;;;;;;121.47;79.30;;;9.60;99.90;;;;;;6245142;23;20299;-71
2024/02/05 09:56:46;;;;;;;120.13;78.60;;;9.60;99.90;;;;;;6245277;23;19996;-72
2024/02/05 09:59:12;;;;;;;112.53;72.83;;;9.60;99.90;;;;;;6245334;23;20062;-72
2024/02/05 10:01:38;;;;;;;99.93;67.90;;;9.60;99.90;;;;;;6245535;23;20004;-71
2024/02/05 10:04:09;;;;;;;97.37;64.23;;;9.70;99.90;;;;;;6218175;23;20008;-71
2024/02/05 10:06:38;;;;;;;81.93;60.63;;;9.70;99.90;;;;;;6244698;23;19997;-72
2024/02/05 10:09:06;;;;;;;108.63;61.10;;;;;;;;;;6244669;23;20036;-74
2024/02/05 10:11:35;;;;;;;102.53;58.37;;;9.80;99.90;;;;;;6244384;23;20074;-74
2024/02/05 10:14:01;;;;;;;86.90;58.33;;;9.80;99.90;;;;;;6245975;23;20000;-78
2024/02/05 10:16:27;;;;;;;74.13;53.97;;;9.90;99.90;;;;;;6247149;23;20004;-78
2024/02/05 10:18:53;;;;;;;72.63;53.97;;;9.90;99.90;;;;;;6247162;23;20075;-77
2024/02/05 10:21:18;;;;;;;72.17;53.83;;;10.00;99.90;;;;;;6246692;23;20008;-78
2024/02/05 10:23:52;;;;;;;73.45;54.25;;;10.10;99.90;;;;;;6246632;23;20005;-77
2024/02/05 10:26:18;;;;;;;76.60;54.57;;;10.10;99.90;;;;;;6246964;23;20004;-78
2024/02/05 10:28:43;;;;;;;83.97;57.53;;;10.20;99.90;;;;;;6246692;23;20157;-78
2024/02/05 10:31:16;;;;;;;87.68;59.08;;;10.20;99.90;;;;;;6246597;23;20023;-78
2024/02/05 10:33:42;;;;;;;78.38;58.92;;;10.20;99.90;;;;;;6246296;23;20011;-77
2024/02/05 10:36:08;;;;;;;83.65;61.10;;;10.30;99.90;;;;;;6246468;23;20000;-78
2024/02/05 10:38:37;;;;;;;89.03;61.13;;;10.30;99.90;;;;;;6219483;23;20004;-77
2024/02/05 10:41:10;;;;;;;82.18;59.78;;;10.30;99.90;;;;;;6246202;23;20008;-77
2024/02/05 10:43:36;;;;;;;;;;;10.30;99.90;;;;;;6246529;23;19996;-77
2024/02/05 10:46:02;;;;;;;82.15;57.13;;;10.40;99.90;;;;;;6246225;23;20203;-78
2024/02/05 10:48:28;;;;;;;82.82;57.45;;;10.30;99.90;;;;;;6245920;23;20434;-77
2024/02/05 10:50:54;;;;;;;80.35;58.75;;;10.40;99.90;;;;;;6246166;23;20006;-78
2024/02/05 10:53:21;;;;;;;86.40;59.45;;;10.40;99.90;;;;;;6245853;23;20075;-78
2024/02/05 10:55:49;;;;;;;78.80;58.17;;;10.40;99.90;;;;;;6246214;23;20303;-78
2024/02/05 10:58:16;;;;;;;80.65;57.00;;;10.40;99.90;;;;;;6246110;23;20008;-78
2024/02/05 11:00:42;;;;;;;81.35;58.05;;;10.40;99.90;;;;;;6246165;23;19996;-77
2024/02/05 11:03:17;;;;;;;86.23;59.00;;;10.50;99.90;;;;;;6245843;23;20067;-78
2024/02/05 11:05:46;;;;;;;79.50;59.22;;;10.50;99.90;;;;;;6246196;23;20050;-77
2024/02/05 11:08:24;;;;;;;84.70;60.25;;;10.50;99.90;;;;;;6246232;23;20054;-78
2024/02/05 11:10:55;;;;;;;86.88;62.97;;;10.50;99.90;;;;;;6246083;23;20024;-77
2024/02/05 11:13:24;;;;;;;85.97;59.63;;;10.50;99.90;;;;;;6245842;23;20083;-78
2024/02/05 11:15:51;;;;;;;84.15;60.28;;;10.60;99.90;;;;;;6245173;23;20012;-78
2024/02/05 11:18:33;;;;;;;84.40;60.85;;;10.60;99.90;;;;;;6245004;23;20082;-78
2024/02/05 11:21:01;;;;;;;85.40;61.72;;;10.60;99.90;;;;;;6245399;23;19996;-78
2024/02/05 11:23:29;;;;;;;85.50;62.13;;;10.60;99.90;;;;;;6246021;23;20000;-76
2024/02/05 11:25:55;;;;;;;85.00;61.22;;;10.60;99.90;;;;;;6219167;23;20011;-78
2024/02/05 11:28:23;;;;;;;84.50;58.97;;;10.60;99.90;;;;;;6246138;23;20012;-77
2024/02/05 11:30:49;;;;;;;81.80;57.22;;;10.70;99.90;;;;;;6245192;23;20012;-74
2024/02/05 11:33:26;;;;;;;81.75;57.08;;;10.70;99.90;;;;;;6245125;23;20006;-79
2024/02/05 11:35:55;;;;;;;79.82;56.63;;;10.70;99.90;;;;;;6243618;23;20061;-70
2024/02/05 11:38:21;;;;;;;78.05;56.45;;;10.70;99.90;;;;;;6245096;23;20058;-70
2024/02/05 11:40:51;;;;;;;79.80;56.42;;;10.70;99.90;;;;;;6245580;23;20007;-77
2024/02/05 11:43:24;;;;;;;78.57;56.95;;;10.80;99.90;;;;;;6243720;23;20495;-77
2024/02/05 11:45:54;;;;;;;77.03;55.33;;;10.80;99.90;;;;;;6243363;23;20413;-78
2024/02/05 11:48:20;;;;;;;79.50;56.33;;;10.80;99.90;;;;;;6216276;23;20016;-78
2024/02/05 11:50:47;;;;;;;77.95;57.58;;;10.80;99.90;;;;;;6243634;23;20084;-75
2024/02/05 11:53:17;;;;;;;77.65;55.55;;;10.80;99.90;;;;;;6243653;23;20325;-78
2024/02/05 11:55:44;;;;;;;79.38;55.00;;;10.80;99.90;;;;;;6243831;23;20005;-78
2024/02/05 11:58:10;;;;;;;75.80;56.17;;;10.90;99.90;;;;;;6245270;23;20028;-79
2024/02/05 12:00:36;;;;;;;76.85;53.85;;;10.90;99.90;;;;;;6245755;23;20119;-79
2024/02/05 12:03:04;;;;;;;71.82;52.40;;;11.00;99.90;;;;;;6244268;23;20418;-78
2024/02/05 12:05:31;;;;;;;75.72;54.17;;;11.00;99.90;;;;;;6245836;23;20447;-78
2024/02/05 12:07:57;;;;;;;80.20;53.42;;;11.00;99.90;;;;;;6218645;23;20023;-78
2024/02/05 12:10:23;;;;;;;78.95;54.20;;;11.00;99.90;;;;;;6245385;23;20449;-78
2024/02/05 12:12:50;;;;;;;74.45;52.08;;;11.10;99.90;;;;;;6245756;23;20004;-78
2024/02/05 12:15:22;;;;;;;76.85;51.60;;;11.10;99.90;;;;;;6245589;23;20031;-78
2024/02/05 12:17:48;;;;;;;72.68;51.80;;;11.10;99.90;;;;;;6245310;23;20087;-78
2024/02/05 12:20:22;;;;;;;76.57;53.60;;;11.20;99.90;;;;;;6245394;23;19996;-78
2024/02/05 12:22:48;;;;;;;77.95;51.38;;;11.20;99.90;;;;;;6218668;23;20393;-77
2024/02/05 12:25:15;;;;;;;74.50;52.30;;;11.30;99.90;;;;;;6245237;23;20000;-77
2024/02/05 12:27:42;;;;;;;70.85;50.22;;;11.30;99.90;;;;;;6245597;23;20420;-78
2024/02/05 12:30:09;;;;;;;76.45;50.58;;;11.40;99.90;;;;;;6245561;23;20337;-78